sensor_id;sensor_type;location;lat;lon;timestamp;pressure;altitude;pressure_sealevel;temperature;humidity
29505;BME280;16452;54.174;12.092;2022-08-27T00:00:40;101096.44;;;25.10;100.00
29505;BME280;16452;54.174;12.092;2022-08-27T00:03:06;101099.19;;;24.68;100.00
29505;BME280;16452;54.174;12.092;2022-08-27T00:05:32;101090.59;;;24.32;100.00
29505;BME280;16452;54.174;12.092;2022-08-27T00:07:58;101097.59;;;24.41;100.00
29505;BME280;16452;54.174;12.092;2022-08-27T00:10:26;101103.03;;;24.24;100.00
29505;BME280;16452;54.174;12.092;2022-08-27T00:12:53;101098.13;;;24.11;100.00
29505;BME280;16452;54.174;12.092;2022-08-27T00:15:20;101097.53;;;24.25;100.00
29505;BME280;16452;54.174;12.092;2022-08-27T00:17:46;101099.63;;;24.13;100.00
29505;BME280;16452;54.174;12.092;2022-08-27T00:20:16;101092.47;;;24.48;100.00
29505;BME280;16452;54.174;12.092;2022-08-27T00:22:42;101089.91;;;23.96;100.00
29505;BME280;16452;54.174;12.092;2022-08-27T00:25:10;101086.00;;;24.17;100.00
29505;BME280;16452;54.174;12.092;2022-08-27T00:27:36;101083.53;;;24.23;100.00
29505;BME280;16452;54.174;12.092;2022-08-27T00:30:05;101082.41;;;24.26;100.00
29505;BME280;16452;54.174;12.092;2022-08-27T00:32:31;101089.13;;;24.12;100.00
29505;BME280;16452;54.174;12.092;2022-08-27T00:34:57;101083.72;;;23.96;100.00
29505;BME280;16452;54.174;12.092;2022-08-27T00:37:23;101086.75;;;24.01;100.00
29505;BME280;16452;54.174;12.092;2022-08-27T00:39:49;101088.50;;;23.84;100.00
29505;BME280;16452;54.174;12.092;2022-08-27T00:42:15;101086.09;;;23.99;100.00
29505;BME280;16452;54.174;12.092;2022-08-27T00:44:41;101084.63;;;23.79;100.00
29505;BME280;16452;54.174;12.092;2022-08-27T00:47:14;101091.84;;;23.86;100.00
29505;BME280;16452;54.174;12.092;2022-08-27T00:49:51;101094.00;;;24.17;100.00
29505;BME280;16452;54.174;12.092;2022-08-27T00:52:31;101084.16;;;24.17;100.00
29505;BME280;16452;54.174;12.092;2022-08-27T00:55:08;101080.50;;;23.84;100.00
29505;BME280;16452;54.174;12.092;2022-08-27T00:57:38;101085.88;;;23.92;100.00
29505;BME280;16452;54.174;12.092;2022-08-27T01:00:12;101082.66;;;24.14;100.00
29505;BME280;16452;54.174;12.092;2022-08-27T01:02:38;101093.16;;;24.16;100.00
29505;BME280;16452;54.174;12.092;2022-08-27T01:05:13;101083.88;;;23.94;100.00
29505;BME280;16452;54.174;12.092;2022-08-27T01:07:43;101088.97;;;23.80;100.00
29505;BME280;16452;54.174;12.092;2022-08-27T01:10:16;101100.53;;;23.70;100.00
29505;BME280;16452;54.174;12.092;2022-08-27T01:12:43;101105.41;;;23.49;100.00
29505;BME280;16452;54.174;12.092;2022-08-27T01:15:14;101104.84;;;23.46;100.00
29505;BME280;16452;54.174;12.092;2022-08-27T01:17:41;101109.19;;;23.64;100.00
29505;BME280;16452;54.174;12.092;2022-08-27T01:20:20;101107.38;;;23.73;100.00
29505;BME280;16452;54.174;12.092;2022-08-27T01:23:31;101101.00;;;23.66;100.00
29505;BME280;16452;54.174;12.092;2022-08-27T01:26:00;101100.28;;;23.38;100.00
29505;BME280;16452;54.174;12.092;2022-08-27T01:28:28;101104.50;;;23.23;100.00
29505;BME280;16452;54.174;12.092;2022-08-27T01:30:54;101090.88;;;23.26;100.00
29505;BME280;16452;54.174;12.092;2022-08-27T01:33:20;101089.53;;;23.04;100.00
29505;BME280;16452;54.174;12.092;2022-08-27T01:35:49;101087.34;;;23.17;100.00
29505;BME280;16452;54.174;12.092;2022-08-27T01:38:17;101087.34;;;23.17;100.00
29505;BME280;16452;54.174;12.092;2022-08-27T01:40:43;101080.47;;;23.32;100.00
29505;BME280;16452;54.174;12.092;2022-08-27T01:43:10;101086.78;;;23.31;100.00
29505;BME280;16452;54.174;12.092;2022-08-27T01:45:39;101085.28;;;23.47;100.00
29505;BME280;16452;54.174;12.092;2022-08-27T01:48:09;101084.81;;;23.33;100.00
29505;BME280;16452;54.174;12.092;2022-08-27T01:50:39;101084.13;;;23.31;100.00
29505;BME280;16452;54.174;12.092;2022-08-27T01:53:15;101081.91;;;23.45;100.00
29505;BME280;16452;54.174;12.092;2022-08-27T01:55:43;101089.06;;;23.09;100.00
29505;BME280;16452;54.174;12.092;2022-08-27T01:58:17;101079.47;;;23.51;100.00
29505;BME280;16452;54.174;12.092;2022-08-27T02:00:48;101079.00;;;23.56;100.00
29505;BME280;16452;54.174;12.092;2022-08-27T02:03:15;101082.28;;;23.50;100.00
29505;BME280;16452;54.174;12.092;2022-08-27T02:05:46;101080.84;;;23.81;100.00
29505;BME280;16452;54.174;12.092;2022-08-27T02:08:14;101089.09;;;23.70;100.00
29505;BME280;16452;54.174;12.092;2022-08-27T02:10:42;101088.59;;;23.31;100.00
29505;BME280;16452;54.174;12.092;2022-08-27T02:13:09;101085.81;;;23.15;100.00
29505;BME280;16452;54.174;12.092;2022-08-27T02:15:39;101090.75;;;23.27;100.00
29505;BME280;16452;54.174;12.092;2022-08-27T02:18:07;101093.28;;;23.55;100.00
29505;BME280;16452;54.174;12.092;2022-08-27T02:20:34;101093.00;;;23.58;100.00
29505;BME280;16452;54.174;12.092;2022-08-27T02:23:00;101097.34;;;23.41;100.00
29505;BME280;16452;54.174;12.092;2022-08-27T02:25:26;101098.41;;;23.74;100.00
29505;BME280;16452;54.174;12.092;2022-08-27T02:27:54;101098.53;;;23.64;100.00
29505;BME280;16452;54.174;12.092;2022-08-27T02:30:23;101090.56;;;23.98;100.00
29505;BME280;16452;54.174;12.092;2022-08-27T02:32:49;101093.06;;;24.00;100.00
29505;BME280;16452;54.174;12.092;2022-08-27T02:35:19;101089.34;;;24.19;100.00
29505;BME280;16452;54.174;12.092;2022-08-27T02:37:46;101095.72;;;24.26;100.00
29505;BME280;16452;54.174;12.092;2022-08-27T02:40:14;101082.78;;;24.39;100.00
29505;BME280;16452;54.174;12.092;2022-08-27T02:42:44;101091.88;;;24.20;100.00
29505;BME280;16452;54.174;12.092;2022-08-27T02:45:12;101077.56;;;24.21;100.00
29505;BME280;16452;54.174;12.092;2022-08-27T02:47:38;101074.97;;;24.03;100.00
29505;BME280;16452;54.174;12.092;2022-08-27T02:50:05;101083.38;;;23.65;100.00
29505;BME280;16452;54.174;12.092;2022-08-27T02:52:31;101081.31;;;23.51;100.00
29505;BME280;16452;54.174;12.092;2022-08-27T02:54:57;101081.03;;;23.88;100.00
29505;BME280;16452;54.174;12.092;2022-08-27T02:57:24;101070.75;;;23.93;100.00
29505;BME280;16452;54.174;12.092;2022-08-27T02:59:54;101078.25;;;23.97;100.00
29505;BME280;16452;54.174;12.092;2022-08-27T03:02:20;101085.25;;;23.98;100.00
29505;BME280;16452;54.174;12.092;2022-08-27T03:04:46;101088.56;;;23.66;100.00
29505;BME280;16452;54.174;12.092;2022-08-27T03:07:12;101084.44;;;24.06;100.00
29505;BME280;16452;54.174;12.092;2022-08-27T03:09:38;101083.81;;;24.12;100.00
29505;BME280;16452;54.174;12.092;2022-08-27T03:12:05;101083.03;;;24.20;100.00
29505;BME280;16452;54.174;12.092;2022-08-27T03:14:31;101084.50;;;24.14;100.00
29505;BME280;16452;54.174;12.092;2022-08-27T03:16:57;101083.25;;;24.26;100.00
29505;BME280;16452;54.174;12.092;2022-08-27T03:19:43;101090.41;;;24.26;100.00
29505;BME280;16452;54.174;12.092;2022-08-27T03:22:09;101079.06;;;24.24;100.00
29505;BME280;16452;54.174;12.092;2022-08-27T03:24:35;101087.53;;;24.19;100.00
29505;BME280;16452;54.174;12.092;2022-08-27T03:27:01;101086.06;;;24.25;100.00
29505;BME280;16452;54.174;12.092;2022-08-27T03:29:26;101094.59;;;23.77;100.00
29505;BME280;16452;54.174;12.092;2022-08-27T03:31:53;101087.91;;;23.98;100.00
29505;BME280;16452;54.174;12.092;2022-08-27T03:34:19;101088.69;;;23.91;100.00
29505;BME280;16452;54.174;12.092;2022-08-27T03:36:45;101094.59;;;24.02;100.00
29505;BME280;16452;54.174;12.092;2022-08-27T03:39:10;101087.53;;;24.19;100.00
29505;BME280;16452;54.174;12.092;2022-08-27T03:41:37;101093.38;;;23.97;100.00
29505;BME280;16452;54.174;12.092;2022-08-27T03:44:02;101093.13;;;24.08;100.00
29505;BME280;16452;54.174;12.092;2022-08-27T03:46:28;101102.38;;;24.22;100.00
29505;BME280;16452;54.174;12.092;2022-08-27T03:48:55;101101.09;;;24.08;100.00
29505;BME280;16452;54.174;12.092;2022-08-27T03:51:21;101105.91;;;24.04;100.00
29505;BME280;16452;54.174;12.092;2022-08-27T03:53:48;101102.72;;;24.27;100.00
29505;BME280;16452;54.174;12.092;2022-08-27T03:56:14;101099.47;;;24.15;100.00
29505;BME280;16452;54.174;12.092;2022-08-27T03:58:40;101097.19;;;23.94;100.00
29505;BME280;16452;54.174;12.092;2022-08-27T04:01:07;101102.28;;;23.80;100.00
29505;BME280;16452;54.174;12.092;2022-08-27T04:03:33;101098.16;;;23.85;100.00
29505;BME280;16452;54.174;12.092;2022-08-27T04:06:01;101096.56;;;24.00;100.00
29505;BME280;16452;54.174;12.092;2022-08-27T04:08:28;101095.56;;;23.93;100.00
29505;BME280;16452;54.174;12.092;2022-08-27T04:10:54;101100.25;;;23.73;100.00
29505;BME280;16452;54.174;12.092;2022-08-27T04:13:20;101100.34;;;23.90;100.00
29505;BME280;16452;54.174;12.092;2022-08-27T04:15:49;101097.47;;;23.83;100.00
29505;BME280;16452;54.174;12.092;2022-08-27T04:18:16;101095.28;;;23.79;100.00
29505;BME280;16452;54.174;12.092;2022-08-27T04:20:47;101087.88;;;23.90;100.00
29505;BME280;16452;54.174;12.092;2022-08-27T04:23:14;101092.34;;;23.90;100.00
29505;BME280;16452;54.174;12.092;2022-08-27T04:25:41;101101.59;;;23.78;100.00
29505;BME280;16452;54.174;12.092;2022-08-27T04:28:09;101097.88;;;23.70;100.00
29505;BME280;16452;54.174;12.092;2022-08-27T04:30:39;101098.28;;;24.09;100.00
29505;BME280;16452;54.174;12.092;2022-08-27T04:33:06;101095.63;;;23.84;100.00
29505;BME280;16452;54.174;12.092;2022-08-27T04:35:32;101096.00;;;23.89;100.00
29505;BME280;16452;54.174;12.092;2022-08-27T04:37:58;101091.28;;;23.74;100.00
29505;BME280;16452;54.174;12.092;2022-08-27T04:40:23;101098.09;;;23.77;100.00
29505;BME280;16452;54.174;12.092;2022-08-27T04:43:09;101094.75;;;23.49;100.00
29505;BME280;16452;54.174;12.092;2022-08-27T04:45:42;101101.13;;;23.82;100.00
29505;BME280;16452;54.174;12.092;2022-08-27T04:48:10;101105.25;;;23.33;100.00
29505;BME280;16452;54.174;12.092;2022-08-27T04:50:45;101106.09;;;23.51;100.00
29505;BME280;16452;54.174;12.092;2022-08-27T04:53:13;101107.13;;;23.41;100.00
29505;BME280;16452;54.174;12.092;2022-08-27T04:55:52;101106.97;;;23.86;100.00
29505;BME280;16452;54.174;12.092;2022-08-27T04:58:21;101108.28;;;23.82;100.00
29505;BME280;16452;54.174;12.092;2022-08-27T05:00:55;101113.59;;;23.56;100.00
29505;BME280;16452;54.174;12.092;2022-08-27T05:03:23;101114.28;;;23.40;100.00
29505;BME280;16452;54.174;12.092;2022-08-27T05:05:51;101118.25;;;23.80;100.00
29505;BME280;16452;54.174;12.092;2022-08-27T05:08:19;101115.06;;;23.50;100.00
29505;BME280;16452;54.174;12.092;2022-08-27T05:10:49;101111.41;;;23.51;100.00
29505;BME280;16452;54.174;12.092;2022-08-27T05:13:18;101110.72;;;23.49;100.00
29505;BME280;16452;54.174;12.092;2022-08-27T05:15:45;101109.31;;;23.63;100.00
29505;BME280;16452;54.174;12.092;2022-08-27T05:18:11;101107.13;;;23.58;100.00
29505;BME280;16452;54.174;12.092;2022-08-27T05:20:45;101106.56;;;23.72;100.00
29505;BME280;16452;54.174;12.092;2022-08-27T05:23:12;101109.94;;;23.57;100.00
29505;BME280;16452;54.174;12.092;2022-08-27T05:25:41;101107.59;;;23.80;100.00
29505;BME280;16452;54.174;12.092;2022-08-27T05:28:09;101101.91;;;23.74;100.00
29505;BME280;16452;54.174;12.092;2022-08-27T05:30:37;101104.22;;;23.69;100.00
29505;BME280;16452;54.174;12.092;2022-08-27T05:33:03;101110.59;;;23.59;100.00
29505;BME280;16452;54.174;12.092;2022-08-27T05:35:29;101103.78;;;23.56;100.00
29505;BME280;16452;54.174;12.092;2022-08-27T05:37:58;101111.63;;;23.58;100.00
29505;BME280;16452;54.174;12.092;2022-08-27T05:40:26;101115.00;;;23.68;100.00
29505;BME280;16452;54.174;12.092;2022-08-27T05:42:52;101117.78;;;23.58;100.00
29505;BME280;16452;54.174;12.092;2022-08-27T05:45:18;101108.31;;;23.90;100.00
29505;BME280;16452;54.174;12.092;2022-08-27T05:47:43;101109.75;;;23.76;100.00
29505;BME280;16452;54.174;12.092;2022-08-27T05:50:09;101111.38;;;23.69;100.00
29505;BME280;16452;54.174;12.092;2022-08-27T05:52:35;101113.56;;;23.73;100.00
29505;BME280;16452;54.174;12.092;2022-08-27T05:55:01;101110.88;;;23.73;100.00
29505;BME280;16452;54.174;12.092;2022-08-27T05:57:27;101118.72;;;23.75;100.00
29505;BME280;16452;54.174;12.092;2022-08-27T05:59:53;101106.91;;;23.78;100.00
29505;BME280;16452;54.174;12.092;2022-08-27T06:02:38;101110.88;;;23.73;100.00
29505;BME280;16452;54.174;12.092;2022-08-27T06:05:04;101099.00;;;23.86;100.00
29505;BME280;16452;54.174;12.092;2022-08-27T06:07:32;101105.34;;;23.67;100.00
29505;BME280;16452;54.174;12.092;2022-08-27T06:09:58;101096.56;;;24.00;100.00
29505;BME280;16452;54.174;12.092;2022-08-27T06:12:24;101095.38;;;23.95;100.00
29505;BME280;16452;54.174;12.092;2022-08-27T06:14:50;101095.00;;;23.90;100.00
29505;BME280;16452;54.174;12.092;2022-08-27T06:17:16;101090.47;;;23.82;100.00
29505;BME280;16452;54.174;12.092;2022-08-27T06:19:42;101100.97;;;23.58;100.00
29505;BME280;16452;54.174;12.092;2022-08-27T06:22:08;101087.22;;;23.70;100.00
29505;BME280;16452;54.174;12.092;2022-08-27T06:24:34;101088.66;;;23.57;100.00
29505;BME280;16452;54.174;12.092;2022-08-27T06:27:00;101084.97;;;23.76;100.00
29505;BME280;16452;54.174;12.092;2022-08-27T06:29:26;101093.41;;;23.71;100.00
29505;BME280;16452;54.174;12.092;2022-08-27T06:31:52;101096.31;;;23.60;100.00
29505;BME280;16452;54.174;12.092;2022-08-27T06:34:20;101095.16;;;23.88;100.00
29505;BME280;16452;54.174;12.092;2022-08-27T06:36:46;101092.31;;;23.82;100.00
29505;BME280;16452;54.174;12.092;2022-08-27T06:39:12;101094.81;;;23.83;100.00
29505;BME280;16452;54.174;12.092;2022-08-27T06:41:41;101093.56;;;23.69;100.00
29505;BME280;16452;54.174;12.092;2022-08-27T06:44:07;101095.59;;;23.76;100.00
29505;BME280;16452;54.174;12.092;2022-08-27T06:46:33;101094.97;;;23.56;100.00
29505;BME280;16452;54.174;12.092;2022-08-27T06:49:00;101099.59;;;23.36;100.00
29505;BME280;16452;54.174;12.092;2022-08-27T06:51:31;101099.34;;;23.65;100.00
29505;BME280;16452;54.174;12.092;2022-08-27T06:54:01;101102.47;;;23.43;100.00
29505;BME280;16452;54.174;12.092;2022-08-27T06:56:28;101106.81;;;23.44;100.00
29505;BME280;16452;54.174;12.092;2022-08-27T06:58:57;101110.94;;;23.38;100.00
29505;BME280;16452;54.174;12.092;2022-08-27T07:01:33;101113.06;;;23.34;100.00
29505;BME280;16452;54.174;12.092;2022-08-27T07:04:03;101121.72;;;23.37;100.00
29505;BME280;16452;54.174;12.092;2022-08-27T07:06:30;101122.78;;;23.44;100.00
29505;BME280;16452;54.174;12.092;2022-08-27T07:08:58;101121.56;;;23.38;100.00
29505;BME280;16452;54.174;12.092;2022-08-27T07:11:25;101122.28;;;23.05;100.00
29505;BME280;16452;54.174;12.092;2022-08-27T07:13:51;101125.81;;;22.78;100.00
29505;BME280;16452;54.174;12.092;2022-08-27T07:16:23;101128.44;;;23.23;100.00
29505;BME280;16452;54.174;12.092;2022-08-27T07:18:50;101131.00;;;23.15;100.00
29505;BME280;16452;54.174;12.092;2022-08-27T07:21:17;101129.69;;;22.83;100.00
29505;BME280;16452;54.174;12.092;2022-08-27T07:23:45;101125.00;;;23.30;100.00
29505;BME280;16452;54.174;12.092;2022-08-27T07:26:13;101131.84;;;23.33;100.00
29505;BME280;16452;54.174;12.092;2022-08-27T07:28:42;101129.69;;;23.37;100.00
29505;BME280;16452;54.174;12.092;2022-08-27T07:31:11;101138.59;;;23.27;100.00
29505;BME280;16452;54.174;12.092;2022-08-27T07:33:38;101133.28;;;23.27;100.00
29505;BME280;16452;54.174;12.092;2022-08-27T07:36:05;101135.81;;;23.47;100.00
29505;BME280;16452;54.174;12.092;2022-08-27T07:38:32;101143.59;;;23.30;100.00
29505;BME280;16452;54.174;12.092;2022-08-27T07:40:58;101151.97;;;23.53;100.00
29505;BME280;16452;54.174;12.092;2022-08-27T07:43:24;101142.69;;;23.40;100.00
29505;BME280;16452;54.174;12.092;2022-08-27T07:46:09;101142.34;;;23.17;100.00
29505;BME280;16452;54.174;12.092;2022-08-27T07:48:34;101152.88;;;23.09;100.00
29505;BME280;16452;54.174;12.092;2022-08-27T07:51:03;101152.03;;;23.26;100.00
29505;BME280;16452;54.174;12.092;2022-08-27T07:53:33;101147.41;;;23.10;100.00
29505;BME280;16452;54.174;12.092;2022-08-27T07:56:07;101151.56;;;23.30;100.00
29505;BME280;16452;54.174;12.092;2022-08-27T07:58:33;101152.41;;;23.13;100.00
29505;BME280;16452;54.174;12.092;2022-08-27T08:00:59;101153.72;;;23.27;100.00
29505;BME280;16452;54.174;12.092;2022-08-27T08:03:25;101158.84;;;22.66;100.00
29505;BME280;16452;54.174;12.092;2022-08-27T08:05:53;101150.91;;;23.28;100.00
29505;BME280;16452;54.174;12.092;2022-08-27T08:08:20;101156.00;;;23.22;100.00
29505;BME280;16452;54.174;12.092;2022-08-27T08:10:47;101167.53;;;23.30;100.00
29505;BME280;16452;54.174;12.092;2022-08-27T08:13:15;101171.13;;;23.57;100.00
29505;BME280;16452;54.174;12.092;2022-08-27T08:15:44;101177.88;;;23.33;100.00
29505;BME280;16452;54.174;12.092;2022-08-27T08:18:10;101175.13;;;23.25;100.00
29505;BME280;16452;54.174;12.092;2022-08-27T08:20:36;101180.56;;;23.51;100.00
29505;BME280;16452;54.174;12.092;2022-08-27T08:23:01;101168.91;;;23.34;100.00
29505;BME280;16452;54.174;12.092;2022-08-27T08:25:28;101181.94;;;23.55;100.00
29505;BME280;16452;54.174;12.092;2022-08-27T08:27:54;101178.88;;;23.68;100.00
29505;BME280;16452;54.174;12.092;2022-08-27T08:30:21;101179.59;;;23.78;100.00
29505;BME280;16452;54.174;12.092;2022-08-27T08:32:47;101181.38;;;23.69;100.00
29505;BME280;16452;54.174;12.092;2022-08-27T08:35:13;101178.69;;;23.87;100.00
29505;BME280;16452;54.174;12.092;2022-08-27T08:37:44;101181.69;;;23.66;100.00
29505;BME280;16452;54.174;12.092;2022-08-27T08:40:41;101182.88;;;24.15;100.00
29505;BME280;16452;54.174;12.092;2022-08-27T08:46:01;101184.16;;;24.37;100.00
29505;BME280;16452;54.174;12.092;2022-08-27T08:48:34;101187.19;;;24.17;100.00
29505;BME280;16452;54.174;12.092;2022-08-27T08:56:40;101184.84;;;24.13;100.00
29505;BME280;16452;54.174;12.092;2022-08-27T08:59:32;101195.25;;;23.99;100.00
29505;BME280;16452;54.174;12.092;2022-08-27T09:01:59;101193.34;;;23.91;100.00
29505;BME280;16452;54.174;12.092;2022-08-27T09:04:27;101189.75;;;24.00;100.00
29505;BME280;16452;54.174;12.092;2022-08-27T09:12:29;101192.88;;;23.96;100.00
29505;BME280;16452;54.174;12.092;2022-08-27T09:15:14;101192.91;;;24.22;100.00
29505;BME280;16452;54.174;12.092;2022-08-27T09:17:42;101197.28;;;24.31;100.00
29505;BME280;16452;54.174;12.092;2022-08-27T09:20:11;101197.06;;;24.24;100.00
29505;BME280;16452;54.174;12.092;2022-08-27T09:25:43;101196.94;;;24.26;100.00
29505;BME280;16452;54.174;12.092;2022-08-27T09:28:19;101196.44;;;24.30;100.00
29505;BME280;16452;54.174;12.092;2022-08-27T09:31:12;101191.59;;;24.60;100.00
29505;BME280;16452;54.174;12.092;2022-08-27T09:33:38;101196.38;;;24.48;100.00
29505;BME280;16452;54.174;12.092;2022-08-27T09:36:10;101201.22;;;24.19;100.00
29505;BME280;16452;54.174;12.092;2022-08-27T09:38:36;101205.53;;;24.20;100.00
29505;BME280;16452;54.174;12.092;2022-08-27T09:41:16;101198.19;;;24.47;100.00
29505;BME280;16452;54.174;12.092;2022-08-27T09:43:44;101198.66;;;24.17;100.00
29505;BME280;16452;54.174;12.092;2022-08-27T09:46:23;101205.06;;;23.98;100.00
29505;BME280;16452;54.174;12.092;2022-08-27T09:48:50;101201.41;;;24.25;100.00
29505;BME280;16452;54.174;12.092;2022-08-27T09:51:24;101203.19;;;24.42;100.00
29505;BME280;16452;54.174;12.092;2022-08-27T09:53:58;101206.22;;;24.22;100.00
29505;BME280;16452;54.174;12.092;2022-08-27T09:56:33;101207.94;;;24.31;100.00
29505;BME280;16452;54.174;12.092;2022-08-27T09:59:21;101206.81;;;24.33;100.00
29505;BME280;16452;54.174;12.092;2022-08-27T10:02:06;101212.91;;;24.26;100.00
29505;BME280;16452;54.174;12.092;2022-08-27T10:04:40;101202.34;;;24.16;100.00
29505;BME280;16452;54.174;12.092;2022-08-27T10:07:48;101202.13;;;24.35;100.00
29505;BME280;16452;54.174;12.092;2022-08-27T10:10:42;101209.81;;;24.38;100.00
29505;BME280;16452;54.174;12.092;2022-08-27T10:13:25;101205.41;;;24.21;100.00
29505;BME280;16452;54.174;12.092;2022-08-27T10:27:50;101193.06;;;24.20;100.00
29505;BME280;16452;54.174;12.092;2022-08-27T10:30:25;101191.78;;;24.06;100.00
29505;BME280;16452;54.174;12.092;2022-08-27T10:36:25;101194.97;;;24.10;100.00
29505;BME280;16452;54.174;12.092;2022-08-27T10:39:29;101189.81;;;24.08;100.00
29505;BME280;16452;54.174;12.092;2022-08-27T10:45:15;101195.53;;;23.96;100.00
29505;BME280;16452;54.174;12.092;2022-08-27T10:50:53;101185.00;;;24.38;100.00
29505;BME280;16452;54.174;12.092;2022-08-27T10:53:47;101197.75;;;24.26;100.00
29505;BME280;16452;54.174;12.092;2022-08-27T10:56:32;101192.44;;;24.26;100.00
29505;BME280;16452;54.174;12.092;2022-08-27T11:04:42;101198.91;;;24.24;100.00
29505;BME280;16452;54.174;12.092;2022-08-27T11:07:21;101197.25;;;24.23;100.00
29505;BME280;16452;54.174;12.092;2022-08-27T11:09:58;101197.44;;;24.29;100.00
29505;BME280;16452;54.174;12.092;2022-08-27T11:12:40;101193.06;;;24.54;100.00
29505;BME280;16452;54.174;12.092;2022-08-27T11:15:12;101184.56;;;24.50;100.00
29505;BME280;16452;54.174;12.092;2022-08-27T11:17:52;101184.72;;;24.49;100.00
29505;BME280;16452;54.174;12.092;2022-08-27T11:20:29;101186.66;;;24.73;100.00
29505;BME280;16452;54.174;12.092;2022-08-27T11:23:14;101188.16;;;24.75;98.33
29505;BME280;16452;54.174;12.092;2022-08-27T11:26:00;101183.25;;;24.97;97.35
29505;BME280;16452;54.174;12.092;2022-08-27T11:28:46;101185.13;;;25.04;96.68
29505;BME280;16452;54.174;12.092;2022-08-27T11:31:50;101187.31;;;25.25;96.07
29505;BME280;16452;54.174;12.092;2022-08-27T11:34:36;101195.50;;;25.31;96.32
29505;BME280;16452;54.174;12.092;2022-08-27T11:37:27;101188.19;;;25.58;93.96
29505;BME280;16452;54.174;12.092;2022-08-27T11:43:05;101201.34;;;25.51;95.08
29505;BME280;16452;54.174;12.092;2022-08-27T11:46:04;101199.19;;;25.55;92.96
29505;BME280;16452;54.174;12.092;2022-08-27T11:48:35;101197.38;;;25.71;93.24
29505;BME280;16452;54.174;12.092;2022-08-27T11:51:07;101201.31;;;26.16;91.37
29505;BME280;16452;54.174;12.092;2022-08-27T11:53:53;101206.00;;;26.14;90.75
29505;BME280;16452;54.174;12.092;2022-08-27T11:56:43;101205.53;;;26.27;89.58
29505;BME280;16452;54.174;12.092;2022-08-27T12:01:54;101199.69;;;25.99;91.59
29505;BME280;16452;54.174;12.092;2022-08-27T12:15:15;101198.31;;;26.74;89.59
29505;BME280;16452;54.174;12.092;2022-08-27T12:17:59;101199.50;;;26.72;88.83
29505;BME280;16452;54.174;12.092;2022-08-27T12:24:07;101195.75;;;26.50;88.24
29505;BME280;16452;54.174;12.092;2022-08-27T12:26:40;101209.06;;;26.66;88.37
29505;BME280;16452;54.174;12.092;2022-08-27T12:32:44;101213.94;;;27.02;85.86
29505;BME280;16452;54.174;12.092;2022-08-27T12:35:22;101214.16;;;26.84;86.23
29505;BME280;16452;54.174;12.092;2022-08-27T12:40:53;101211.59;;;26.60;88.88
29505;BME280;16452;54.174;12.092;2022-08-27T12:43:28;101213.78;;;26.87;88.36
29505;BME280;16452;54.174;12.092;2022-08-27T12:46:10;101216.34;;;27.19;87.88
29505;BME280;16452;54.174;12.092;2022-08-27T12:48:58;101210.50;;;27.16;86.55
29505;BME280;16452;54.174;12.092;2022-08-27T12:51:35;101208.38;;;27.34;85.95
29505;BME280;16452;54.174;12.092;2022-08-27T13:04:42;101233.59;;;26.70;86.88
29505;BME280;16452;54.174;12.092;2022-08-27T13:07:08;101230.06;;;26.14;87.98
29505;BME280;16452;54.174;12.092;2022-08-27T13:09:37;101229.38;;;26.28;88.60
29505;BME280;16452;54.174;12.092;2022-08-27T13:12:18;101234.06;;;26.02;89.55
29505;BME280;16452;54.174;12.092;2022-08-27T13:14:44;101230.41;;;26.03;89.45
29505;BME280;16452;54.174;12.092;2022-08-27T13:17:20;101240.22;;;26.10;89.41
29505;BME280;16452;54.174;12.092;2022-08-27T13:20:00;101232.41;;;26.01;88.51
29505;BME280;16452;54.174;12.092;2022-08-27T13:22:38;101243.44;;;25.65;90.61
29505;BME280;16452;54.174;12.092;2022-08-27T13:25:16;101233.53;;;25.50;91.96
29505;BME280;16452;54.174;12.092;2022-08-27T13:27:55;101239.28;;;25.79;91.04
29505;BME280;16452;54.174;12.092;2022-08-27T13:30:23;101242.94;;;25.78;90.22
29505;BME280;16452;54.174;12.092;2022-08-27T13:32:50;101233.25;;;25.85;90.01
29505;BME280;16452;54.174;12.092;2022-08-27T13:35:17;101239.22;;;25.55;90.08
29505;BME280;16452;54.174;12.092;2022-08-27T13:37:48;101234.78;;;25.80;89.72
29505;BME280;16452;54.174;12.092;2022-08-27T13:40:50;101234.41;;;26.15;89.52
29505;BME280;16452;54.174;12.092;2022-08-27T13:43:18;101232.72;;;26.38;87.88
29505;BME280;16452;54.174;12.092;2022-08-27T13:45:48;101231.59;;;26.72;85.68
29505;BME280;16452;54.174;12.092;2022-08-27T13:48:19;101227.34;;;26.93;84.65
29505;BME280;16452;54.174;12.092;2022-08-27T13:50:52;101234.41;;;26.78;84.80
29505;BME280;16452;54.174;12.092;2022-08-27T13:53:27;101235.66;;;26.60;84.77
29505;BME280;16452;54.174;12.092;2022-08-27T13:56:31;101244.25;;;26.14;85.80
29505;BME280;16452;54.174;12.092;2022-08-27T14:07:13;101247.75;;;25.74;86.96
29505;BME280;16452;54.174;12.092;2022-08-27T14:09:54;101248.38;;;25.44;88.28
29505;BME280;16452;54.174;12.092;2022-08-27T14:12:39;101244.38;;;25.48;89.19
29505;BME280;16452;54.174;12.092;2022-08-27T14:15:40;101249.59;;;25.66;87.65
29505;BME280;16452;54.174;12.092;2022-08-27T14:18:31;101238.25;;;25.88;86.62
29505;BME280;16452;54.174;12.092;2022-08-27T14:21:01;101249.13;;;25.62;88.13
29505;BME280;16452;54.174;12.092;2022-08-27T14:23:30;101247.72;;;25.50;88.33